Marcus G. Langseth — WDC6698 — position and weather

sailwx.info

Track history (hours):
 
Tides and Currents Weather Stations Pressure Air Temp Water Temp Dewpoint Dewpoint Depression Visibility Wind Speed Wind Dir Waves Ship Positions

Oceanographic research ship Marcus G. Langseth (USA)

Detailed information on ship capabilities available from ARCUS's ALIAS (Arctic Logistics Information and Support) project.

More information available from US FCC via Universal Licensing System and Coast Guard Vessel Documentation Center.

Last reported at 2014-Aug-31 18:00 UTC. Time now 2014-Sep-02 19:15 UTC.
Position N 36°06' W 068°54'.

Length 72 m; draft 6.6 m.

Type: Ship. MMSI: 367059880.

Wind from 200 at 8 knots

Waves 0.5 meters (2 feet), 1 second period

Barometer 1022.5 mb
Air temperature 27.2 ° C
Visibility: greater than 10.8 NM
Dewpoint 22.6 ° C
Water temperature 27.6 ° C

Date/timePositionNaut miles runAvg speedWind from/ knotsBaromVisibWave heightAir tempDewpointWater temp
2014-Aug-31 18:00N 36°06' W 068°54'5 0.1 200 / 81022.510.8 0.527.222.627.6
2014-Aug-29 18:00N 36°06' W 069°00'119 5.0 999 / 61018.410.8 0.525.619.027.1
2014-Aug-28 18:00N 38°00' W 069°42'64 9.5 310 / 181008.010.8 1.025.622.426.3
2014-Aug-28 11:12N 38°59' W 070°14'2 2.8
2014-Aug-28 10:33N 38°60' W 070°16'8 7.8
2014-Aug-28 09:32N 38°56' W 070°07'9 7.8
2014-Aug-28 08:22N 38°52' W 069°57'14 7.4
2014-Aug-28 06:31N 39°03' W 070°07'3 3.3
2014-Aug-28 05:33N 39°03' W 070°03'9 7.4
2014-Aug-28 04:20N 39°00' W 069°52'6 8.0
2014-Aug-28 03:33N 38°55' W 069°49'16 7.8
2014-Aug-28 01:31N 38°39' W 069°43'62 8.3
2014-Aug-27 18:00N 37°42' W 069°12'83 3.5 120 / 161013.010.8 1.027.824.827.0
2014-Aug-26 18:00N 36°42' W 068°00'138 2.9 080 / 141016.410.8 1.029.424.227.7
2014-Aug-24 18:00N 37°42' W 070°36'62 4.2 050 / 251014.210.8 1.523.921.527.9
2014-Aug-24 03:18N 38°29' W 071°27'3 3.9
2014-Aug-24 02:30N 38°32' W 071°30'4 4.2
2014-Aug-24 01:32N 38°35' W 071°33'4 4.3
2014-Aug-24 00:33N 38°38' W 071°36'4 4.3
2014-Aug-23 23:33N 38°41' W 071°40'5 4.2
2014-Aug-23 22:22N 38°45' W 071°44'4 4.3
2014-Aug-23 21:20N 38°49' W 071°47'4 4.5
2014-Aug-23 20:29N 38°52' W 071°50'4 4.4
2014-Aug-23 19:29N 38°55' W 071°54'30 1.9
2014-Aug-23 03:34N 39°20' W 072°14'3 3.2
2014-Aug-23 02:34N 39°18' W 072°11'3 3.2
2014-Aug-23 01:34N 39°16' W 072°09'3 3.0
2014-Aug-23 00:33N 39°13' W 072°06'3 3.0
2014-Aug-22 23:33N 39°11' W 072°04'6 2.7
2014-Aug-22 21:21N 39°08' W 071°57'3 2.6
2014-Aug-22 20:15N 39°07' W 071°54'3 3.9
2014-Aug-22 19:34N 39°06' W 071°51'11 7.2
2014-Aug-22 18:00N 39°06' W 071°36'6 3.9 050 / 121014.210.8 0.526.721.924.3
2014-Aug-22 16:34N 39°00' W 071°37'4 3.5
2014-Aug-22 15:34N 38°59' W 071°33'2 1.6
2014-Aug-22 14:22N 38°57' W 071°34'1 1.0
2014-Aug-22 13:33N 38°57' W 071°35'6 6.3
2014-Aug-22 12:33N 38°59' W 071°43'1010.1
2014-Aug-22 11:34N 39°05' W 071°53'1110.5
2014-Aug-22 10:34N 39°12' W 072°04'1110.4
2014-Aug-22 09:31N 39°18' W 072°15'1010.4
2014-Aug-22 08:34N 39°23' W 072°26'1110.6
2014-Aug-22 07:33N 39°30' W 072°36'1110.7
2014-Aug-22 06:34N 39°38' W 072°46'5 5.4
2014-Aug-22 05:33N 39°40' W 072°52'1110.6
2014-Aug-22 04:33N 39°47' W 073°03'1110.6
2014-Aug-22 03:34N 39°53' W 073°14'9 9.2
2014-Aug-22 02:34N 39°57' W 073°25'5 5.3
2014-Aug-22 01:34N 39°59' W 073°31'3 2.7
2014-Aug-22 00:33N 40°01' W 073°33'2 2.1
2014-Aug-21 23:33N 40°03' W 073°34'2 1.8
2014-Aug-21 22:34N 40°03' W 073°32'2 2.3
2014-Aug-21 21:34N 40°02' W 073°30'3 2.7
2014-Aug-21 20:33N 39°59' W 073°28'3 2.6
2014-Aug-21 19:33N 40°01' W 073°31'2 1.5
2014-Aug-21 18:27N 40°01' W 073°33'  
Track history (hours):
 
Tides and Currents Weather Stations Pressure Air Temp Water Temp Dewpoint Dewpoint Depression Visibility Wind Speed Wind Dir Waves Ship Positions

Oceanographic research ship Marcus G. Langseth (USA)

Detailed information on ship capabilities available from ARCUS's ALIAS (Arctic Logistics Information and Support) project.

More information available from US FCC via Universal Licensing System and Coast Guard Vessel Documentation Center.

Last reported at 2014-Aug-31 18:00 UTC. Time now 2014-Sep-02 19:15 UTC.
Position N 36°06' W 068°54'.

Length 72 m; draft 6.6 m.

Type: Ship. MMSI: 367059880.

Wind from 200 at 8 knots

Waves 0.5 meters (2 feet), 1 second period

Barometer 1022.5 mb
Air temperature 27.2 ° C
Visibility: greater than 10.8 NM
Dewpoint 22.6 ° C
Water temperature 27.6 ° C

Date/timePositionNaut miles runAvg speedWind from/ knotsBaromVisibWave heightAir tempDewpointWater temp
2014-Aug-31 18:00N 36°06' W 068°54'5 0.1 200 / 81022.510.8 0.527.222.627.6
2014-Aug-29 18:00N 36°06' W 069°00'119 5.0 999 / 61018.410.8 0.525.619.027.1
2014-Aug-28 18:00N 38°00' W 069°42'64 9.5 310 / 181008.010.8 1.025.622.426.3
2014-Aug-28 11:12N 38°59' W 070°14'2 2.8
2014-Aug-28 10:33N 38°60' W 070°16'8 7.8
2014-Aug-28 09:32N 38°56' W 070°07'9 7.8
2014-Aug-28 08:22N 38°52' W 069°57'14 7.4
2014-Aug-28 06:31N 39°03' W 070°07'3 3.3
2014-Aug-28 05:33N 39°03' W 070°03'9 7.4
2014-Aug-28 04:20N 39°00' W 069°52'6 8.0
2014-Aug-28 03:33N 38°55' W 069°49'16 7.8
2014-Aug-28 01:31N 38°39' W 069°43'62 8.3
2014-Aug-27 18:00N 37°42' W 069°12'83 3.5 120 / 161013.010.8 1.027.824.827.0
2014-Aug-26 18:00N 36°42' W 068°00'138 2.9 080 / 141016.410.8 1.029.424.227.7
2014-Aug-24 18:00N 37°42' W 070°36'62 4.2 050 / 251014.210.8 1.523.921.527.9
2014-Aug-24 03:18N 38°29' W 071°27'3 3.9
2014-Aug-24 02:30N 38°32' W 071°30'4 4.2
2014-Aug-24 01:32N 38°35' W 071°33'4 4.3
2014-Aug-24 00:33N 38°38' W 071°36'4 4.3
2014-Aug-23 23:33N 38°41' W 071°40'5 4.2
2014-Aug-23 22:22N 38°45' W 071°44'4 4.3
2014-Aug-23 21:20N 38°49' W 071°47'4 4.5
2014-Aug-23 20:29N 38°52' W 071°50'4 4.4
2014-Aug-23 19:29N 38°55' W 071°54'30 1.9
2014-Aug-23 03:34N 39°20' W 072°14'3 3.2
2014-Aug-23 02:34N 39°18' W 072°11'3 3.2
2014-Aug-23 01:34N 39°16' W 072°09'3 3.0
2014-Aug-23 00:33N 39°13' W 072°06'3 3.0
2014-Aug-22 23:33N 39°11' W 072°04'6 2.7
2014-Aug-22 21:21N 39°08' W 071°57'3 2.6
2014-Aug-22 20:15N 39°07' W 071°54'3 3.9
2014-Aug-22 19:34N 39°06' W 071°51'11 7.2
2014-Aug-22 18:00N 39°06' W 071°36'6 3.9 050 / 121014.210.8 0.526.721.924.3
2014-Aug-22 16:34N 39°00' W 071°37'4 3.5
2014-Aug-22 15:34N 38°59' W 071°33'2 1.6
2014-Aug-22 14:22N 38°57' W 071°34'1 1.0
2014-Aug-22 13:33N 38°57' W 071°35'6 6.3
2014-Aug-22 12:33N 38°59' W 071°43'1010.1
2014-Aug-22 11:34N 39°05' W 071°53'1110.5
2014-Aug-22 10:34N 39°12' W 072°04'1110.4
2014-Aug-22 09:31N 39°18' W 072°15'1010.4
2014-Aug-22 08:34N 39°23' W 072°26'1110.6
2014-Aug-22 07:33N 39°30' W 072°36'1110.7
2014-Aug-22 06:34N 39°38' W 072°46'5 5.4
2014-Aug-22 05:33N 39°40' W 072°52'1110.6
2014-Aug-22 04:33N 39°47' W 073°03'1110.6
2014-Aug-22 03:34N 39°53' W 073°14'9 9.2
2014-Aug-22 02:34N 39°57' W 073°25'5 5.3
2014-Aug-22 01:34N 39°59' W 073°31'3 2.7
2014-Aug-22 00:33N 40°01' W 073°33'2 2.1
2014-Aug-21 23:33N 40°03' W 073°34'2 1.8
2014-Aug-21 22:34N 40°03' W 073°32'2 2.3
2014-Aug-21 21:34N 40°02' W 073°30'3 2.7
2014-Aug-21 20:33N 39°59' W 073°28'3 2.6
2014-Aug-21 19:33N 40°01' W 073°31'2 1.5
2014-Aug-21 18:27N 40°01' W 073°33'  

Dump ship's entire track history